WALL/BPN METAR and TAF weather

Enter ICAO airport designator
Station Type Date Time Source
WALL METAR 2020/10/28 11:30 UTC NOAA

WALL 281130Z 04002KT 9000 SCT020 27/25 Q1009


Station Type Date Time Source
WALL Decoded METAR 2020/10/28 11:30 UTC NOAA

Station name not available
Oct 28, 2020 - 07:30 AM EDT / 2020.10.28 1130 UTC
Wind: from the NE (040 degrees) at 2 MPH (2 KT):0
Visibility: 5 mile(s):0
Sky conditions: partly cloudy
Temperature: 80 F (27 C)
Dew Point: 77 F (25 C)
Relative Humidity: 88%
Pressure (altimeter): 29.80 in. Hg (1009 hPa)
ob: WALL 281130Z 04002KT 9000 SCT020 27/25 Q1009
cycle: 11

Station Type Date Time Source
WALL TAF 2020/10/29 18:00 UTC NOAA

TAF WALL 291700Z 2918/3024 34003KT 9000 SCT015
TEMPO 3005/3008 5000 SHRA BKN015

Example: see airport list